createdAt,value
2023-04-22T00:01:13.522Z,60.38
2023-04-22T00:04:17.760Z,59.99
2023-04-22T00:07:20.619Z,60.31
2023-04-22T00:10:23.532Z,60.06
2023-04-22T00:13:26.108Z,59.10
2023-04-22T00:16:28.733Z,58.42
2023-04-22T00:19:32.609Z,58.43
2023-04-22T00:22:35.205Z,58.30
2023-04-22T00:25:37.968Z,59.30
2023-04-22T00:28:41.355Z,58.71
2023-04-22T00:31:43.950Z,59.45
2023-04-22T00:34:47.818Z,59.64
2023-04-22T00:37:50.320Z,59.25
2023-04-22T00:40:52.864Z,59.90
2023-04-22T00:43:55.849Z,59.55
2023-04-22T00:46:58.436Z,59.82
2023-04-22T00:50:02.607Z,60.89
2023-04-22T00:53:05.421Z,61.29
2023-04-22T00:56:08.694Z,62.32
2023-04-22T00:59:11.428Z,62.14
2023-04-22T01:02:14.514Z,62.67
2023-04-22T01:05:18.567Z,63.66
2023-04-22T01:08:21.150Z,63.24
2023-04-22T01:11:23.851Z,63.83
2023-04-22T01:14:26.567Z,64.73
2023-04-22T01:17:29.222Z,65.30
2023-04-22T01:20:34.043Z,65.90
2023-04-22T01:23:38.062Z,65.82
2023-04-22T01:26:40.841Z,66.53
2023-04-22T01:29:43.643Z,66.58
2023-04-22T01:32:46.592Z,67.32
2023-04-22T01:35:49.361Z,67.44
2023-04-22T01:38:53.243Z,68.02
2023-04-22T01:41:56.807Z,67.52
2023-04-22T01:44:59.742Z,68.22
2023-04-22T01:48:02.456Z,67.69
2023-04-22T01:51:05.334Z,68.23
2023-04-22T01:54:09.672Z,68.21
2023-04-22T01:57:14.352Z,68.49
2023-04-22T02:00:17.507Z,68.60
2023-04-22T02:03:20.197Z,69.36
2023-04-22T02:06:23.007Z,69.83
2023-04-22T02:09:26.835Z,70.13
2023-04-22T02:12:29.492Z,69.85
2023-04-22T02:15:32.087Z,70.22
2023-04-22T02:18:35.084Z,70.00
2023-04-22T02:21:37.690Z,70.44
2023-04-22T02:24:43.129Z,70.53
2023-04-22T02:27:45.815Z,70.77
2023-04-22T02:30:48.499Z,71.52
2023-04-22T02:33:51.138Z,71.54
2023-04-22T02:36:53.809Z,71.54
2023-04-22T02:39:57.836Z,72.19
2023-04-22T02:43:00.426Z,71.65
2023-04-22T02:46:03.191Z,71.58
2023-04-22T02:49:05.752Z,72.08
2023-04-22T02:52:08.422Z,71.57
2023-04-22T02:55:12.623Z,72.17
2023-04-22T02:58:15.147Z,72.94
2023-04-22T03:01:17.820Z,72.88
2023-04-22T03:04:21.964Z,72.37
2023-04-22T03:07:24.800Z,73.76
2023-04-22T03:10:28.900Z,74.01
2023-04-22T03:13:31.661Z,74.43
2023-04-22T03:16:34.339Z,74.58
2023-04-22T03:19:37.043Z,74.29
2023-04-22T03:22:39.717Z,74.22
2023-04-22T03:25:43.817Z,73.93
2023-04-22T03:28:46.446Z,73.71
2023-04-22T03:31:49.075Z,73.59
2023-04-22T03:34:51.941Z,73.18
2023-04-22T03:37:54.944Z,72.70
2023-04-22T03:40:59.151Z,73.30
2023-04-22T03:44:02.113Z,73.66
2023-04-22T03:47:05.130Z,73.54
2023-04-22T03:50:08.554Z,74.14
2023-04-22T03:53:11.193Z,74.88
2023-04-22T03:56:15.364Z,75.49
2023-04-22T03:59:18.731Z,75.06
2023-04-22T04:02:21.540Z,74.77
2023-04-22T04:05:24.383Z,73.27
2023-04-22T04:08:27.810Z,72.65
2023-04-22T04:11:31.861Z,72.83
2023-04-22T04:14:34.367Z,72.84
2023-04-22T04:17:36.956Z,73.62
2023-04-22T04:20:39.473Z,73.68
2023-04-22T04:23:41.987Z,73.99
2023-04-22T04:26:45.979Z,74.25
2023-04-22T04:29:49.505Z,74.41
2023-04-22T04:32:52.278Z,75.20
2023-04-22T04:35:55.463Z,75.15
2023-04-22T04:38:58.223Z,74.41
2023-04-22T04:42:02.610Z,73.59
2023-04-22T04:45:06.622Z,73.71
2023-04-22T04:48:09.417Z,73.46
2023-04-22T04:51:12.662Z,73.07
2023-04-22T04:54:15.499Z,73.15
2023-04-22T04:57:19.551Z,72.92
2023-04-22T05:00:22.227Z,72.38
2023-04-22T05:03:25.051Z,72.07
2023-04-22T05:06:28.097Z,71.69
2023-04-22T05:09:32.996Z,72.29
2023-04-22T05:12:37.121Z,72.14
2023-04-22T05:15:39.796Z,72.01
2023-04-22T05:18:42.518Z,71.49
2023-04-22T05:21:45.252Z,70.51
2023-04-22T05:24:47.811Z,70.59
2023-04-22T05:27:51.828Z,70.33
2023-04-22T05:30:54.472Z,70.53
2023-04-22T05:33:57.077Z,70.69
2023-04-22T05:36:59.611Z,70.16
2023-04-22T05:40:02.279Z,70.50
2023-04-22T05:43:06.482Z,70.09
2023-04-22T05:46:09.277Z,70.13
2023-04-22T05:49:11.939Z,69.32
2023-04-22T05:52:14.711Z,68.45
2023-04-22T05:55:17.452Z,67.38
2023-04-22T05:58:21.385Z,66.60
2023-04-22T06:01:24.907Z,65.92
2023-04-22T06:04:27.703Z,65.45
2023-04-22T06:07:30.544Z,65.69
2023-04-22T06:10:33.239Z,64.08
2023-04-22T06:13:37.161Z,63.49
2023-04-22T06:16:39.903Z,60.87
2023-04-22T06:19:42.547Z,59.95
2023-04-22T06:22:45.323Z,58.47
2023-04-22T06:25:48.465Z,56.46
2023-04-22T06:28:52.471Z,56.08
2023-04-22T06:31:55.862Z,54.61
2023-04-22T06:34:58.550Z,53.47
2023-04-22T06:38:01.090Z,53.61
2023-04-22T06:41:03.928Z,53.46
2023-04-22T06:44:07.916Z,53.66
2023-04-22T06:47:10.819Z,53.93
2023-04-22T06:50:13.439Z,53.94
2023-04-22T06:53:16.411Z,54.10
2023-04-22T06:56:19.004Z,54.11
2023-04-22T06:59:22.926Z,53.67
2023-04-22T07:02:25.783Z,53.51
2023-04-22T07:05:31.997Z,53.23
2023-04-22T07:08:34.690Z,52.21
2023-04-22T07:11:37.418Z,51.73
2023-04-22T07:14:45.470Z,51.04
2023-04-22T07:17:48.150Z,50.16
2023-04-22T07:20:51.108Z,49.90
2023-04-22T07:23:53.728Z,49.74
2023-04-22T07:26:56.389Z,49.37
2023-04-22T07:30:00.433Z,48.51
2023-04-22T07:33:03.331Z,49.15
2023-04-22T07:36:06.761Z,48.65
2023-04-22T07:39:09.756Z,46.93
2023-04-22T07:42:12.743Z,46.48
2023-04-22T07:45:16.944Z,44.84
2023-04-22T07:48:19.488Z,45.08
2023-04-22T07:51:22.264Z,44.28
2023-04-22T07:54:24.884Z,43.41
2023-04-22T07:57:27.572Z,43.06
2023-04-22T08:00:32.056Z,42.85
2023-04-22T08:03:34.764Z,42.49
2023-04-22T08:06:37.480Z,42.01
2023-04-22T08:09:40.428Z,41.49
2023-04-22T08:12:43.171Z,42.28
2023-04-22T08:15:47.183Z,42.08
2023-04-22T08:18:50.142Z,42.11
2023-04-22T08:21:52.734Z,42.81
2023-04-22T08:24:55.792Z,43.08
2023-04-22T08:27:58.413Z,44.31
2023-04-22T08:31:02.557Z,44.73
2023-04-22T08:34:05.221Z,45.13
2023-04-22T08:37:07.923Z,44.97
2023-04-22T08:40:11.197Z,44.77
2023-04-22T08:43:13.604Z,43.82
2023-04-22T08:46:20.040Z,40.63
2023-04-22T08:49:24.931Z,40.09
2023-04-22T08:52:27.545Z,39.56
2023-04-22T08:55:30.882Z,39.31
2023-04-22T08:58:34.224Z,37.94
2023-04-22T09:01:39.461Z,37.60
2023-04-22T09:04:43.243Z,37.53
2023-04-22T09:07:46.092Z,37.27
2023-04-22T09:10:48.937Z,35.63
2023-04-22T09:13:51.846Z,36.15
2023-04-22T09:16:59.353Z,36.13
2023-04-22T09:20:03.130Z,33.43
2023-04-22T09:23:06.090Z,32.58
2023-04-22T09:26:09.158Z,32.49
2023-04-22T09:29:14.697Z,31.54
2023-04-22T09:32:19.277Z,33.20
2023-04-22T09:35:27.434Z,30.74
2023-04-22T09:38:32.217Z,30.55
2023-04-22T09:41:36.666Z,30.98
2023-04-22T09:44:40.641Z,30.69
2023-04-22T09:47:47.368Z,30.12
2023-04-22T09:50:52.745Z,31.42
2023-04-22T09:53:59.405Z,31.34
2023-04-22T09:57:02.448Z,30.68
2023-04-22T10:00:07.810Z,30.89
2023-04-22T10:03:12.126Z,29.72
2023-04-22T10:06:14.868Z,30.09
2023-04-22T10:09:19.402Z,29.67
2023-04-22T10:12:32.967Z,29.59
2023-04-22T10:15:40.677Z,29.82
2023-04-22T10:18:44.704Z,28.96
2023-04-22T10:21:48.591Z,28.64
2023-04-22T10:24:55.344Z,28.52
2023-04-22T10:28:04.913Z,28.42
2023-04-22T10:31:07.981Z,29.24
2023-04-22T10:34:13.971Z,29.73
2023-04-22T10:37:19.955Z,30.98
2023-04-22T10:40:23.757Z,30.98
2023-04-22T10:43:41.972Z,30.00
2023-04-22T10:47:00.894Z,28.02
2023-04-22T10:50:23.793Z,29.48
2023-04-22T10:53:40.675Z,28.61
2023-04-22T10:57:01.856Z,27.64
2023-04-22T11:00:22.664Z,26.98
2023-04-22T11:03:30.128Z,25.78
2023-04-22T11:06:34.622Z,26.12
2023-04-22T11:09:41.067Z,26.00
2023-04-22T11:12:44.841Z,25.47
2023-04-22T11:15:49.037Z,25.03
2023-04-22T11:18:51.809Z,25.42
2023-04-22T11:21:55.976Z,25.52
2023-04-22T11:25:00.002Z,25.83
2023-04-22T11:28:03.664Z,25.65
2023-04-22T11:31:07.447Z,24.82
2023-04-22T11:34:10.479Z,23.84
2023-04-22T11:37:14.437Z,23.43
2023-04-22T11:43:31.064Z,20.98
2023-04-22T11:46:38.484Z,21.32
2023-04-22T11:49:41.306Z,20.88
2023-04-22T11:52:46.372Z,21.70
2023-04-22T11:55:51.965Z,21.34
2023-04-22T11:58:54.699Z,21.07
2023-04-22T12:01:57.273Z,19.74
2023-04-22T12:05:00.733Z,19.86
2023-04-22T12:08:07.171Z,20.48
2023-04-22T12:11:10.822Z,21.11
2023-04-22T12:14:13.438Z,19.99
2023-04-22T12:17:16.536Z,19.05
2023-04-22T12:20:19.607Z,20.59
2023-04-22T12:23:23.590Z,20.71
2023-04-22T12:26:27.829Z,21.91
2023-04-22T12:29:33.054Z,21.73
2023-04-22T12:32:35.764Z,23.06
2023-04-22T12:35:38.432Z,23.15
2023-04-22T12:38:42.498Z,22.56
2023-04-22T12:41:45.154Z,21.90
2023-04-22T12:44:47.674Z,22.49
2023-04-22T12:47:50.593Z,23.26
2023-04-22T12:50:53.179Z,22.57
2023-04-22T12:53:57.051Z,22.79
2023-04-22T12:56:59.697Z,22.59
2023-04-22T13:00:02.510Z,21.15
2023-04-22T13:03:05.253Z,21.20
2023-04-22T13:06:08.186Z,20.31
2023-04-22T13:09:12.016Z,19.99
2023-04-22T13:12:14.600Z,20.70
2023-04-22T13:15:19.217Z,20.60
2023-04-22T13:18:22.817Z,21.18
2023-04-22T13:21:25.457Z,21.12
2023-04-22T13:24:29.728Z,21.46
2023-04-22T13:27:32.395Z,21.65
2023-04-22T13:30:35.030Z,21.86
2023-04-22T13:33:37.931Z,21.39
2023-04-22T13:36:40.540Z,22.13
2023-04-22T13:39:44.612Z,22.15
2023-04-22T13:42:47.262Z,22.72
2023-04-22T13:45:50.149Z,22.85
2023-04-22T13:48:52.708Z,22.88
2023-04-22T13:51:55.546Z,22.95
2023-04-22T13:54:59.449Z,22.47
2023-04-22T13:58:02.274Z,25.29
2023-04-22T14:01:05.273Z,24.30
2023-04-22T14:04:07.950Z,26.85
2023-04-22T14:07:10.942Z,28.07
2023-04-22T14:10:14.942Z,27.94
2023-04-22T14:13:17.473Z,26.61
2023-04-22T14:16:20.315Z,24.45
2023-04-22T14:19:23.349Z,24.31
2023-04-22T14:22:25.993Z,24.83
2023-04-22T14:25:29.928Z,24.65
2023-04-22T14:28:32.669Z,24.56
2023-04-22T14:31:35.515Z,24.16
2023-04-22T14:34:39.123Z,24.08
2023-04-22T14:37:43.560Z,24.55
2023-04-22T14:40:48.112Z,25.62
2023-04-22T14:43:50.917Z,25.40
2023-04-22T14:46:53.593Z,25.19
2023-04-22T14:49:56.274Z,24.42
2023-04-22T14:52:58.877Z,23.77
2023-04-22T14:56:02.867Z,22.69
2023-04-22T14:59:05.562Z,18.11
2023-04-22T15:02:08.416Z,17.22
2023-04-22T15:05:10.826Z,17.81
2023-04-22T15:08:13.305Z,15.71
2023-04-22T15:11:17.137Z,15.95
2023-04-22T15:14:19.702Z,18.59
2023-04-22T15:17:23.343Z,22.49
2023-04-22T15:20:26.164Z,23.18
2023-04-22T15:23:28.736Z,24.35
2023-04-22T15:26:33.427Z,24.97
2023-04-22T15:29:36.229Z,25.60
2023-04-22T15:32:39.139Z,25.62
2023-04-22T15:35:43.180Z,25.56
2023-04-22T15:38:45.847Z,25.43
2023-04-22T15:41:49.891Z,26.58
2023-04-22T15:44:52.541Z,26.52
2023-04-22T15:47:55.409Z,27.63
2023-04-22T15:50:57.999Z,26.73
2023-04-22T15:54:01.821Z,26.75
2023-04-22T15:57:06.078Z,27.30
2023-04-22T16:00:13.071Z,26.82
2023-04-22T16:03:16.337Z,26.79
2023-04-22T16:06:19.942Z,26.75
2023-04-22T16:09:22.575Z,27.44
2023-04-22T16:12:26.664Z,27.13
2023-04-22T16:15:29.218Z,28.08
2023-04-22T16:18:31.975Z,28.62
2023-04-22T16:21:35.795Z,28.82
2023-04-22T16:24:38.358Z,28.77
2023-04-22T16:27:42.660Z,29.16
2023-04-22T16:30:45.299Z,29.61
2023-04-22T16:33:47.883Z,30.04
2023-04-22T16:36:51.030Z,30.43
2023-04-22T16:39:53.809Z,30.41
2023-04-22T16:43:02.814Z,30.77
2023-04-22T16:46:05.644Z,31.26
2023-04-22T16:49:10.362Z,31.16
2023-04-22T16:52:13.130Z,31.01
2023-04-22T16:55:15.864Z,31.16
2023-04-22T16:58:19.921Z,31.28
2023-04-22T17:01:23.632Z,30.80
2023-04-22T17:04:26.410Z,30.86
2023-04-22T17:07:29.295Z,31.25
2023-04-22T17:10:32.616Z,31.46
2023-04-22T17:13:36.481Z,31.61
2023-04-22T17:16:39.058Z,31.87
2023-04-22T17:19:43.001Z,32.03
2023-04-22T17:22:46.028Z,32.09
2023-04-22T17:25:48.616Z,32.66
2023-04-22T17:28:52.544Z,32.51
2023-04-22T17:31:55.455Z,32.71
2023-04-22T17:34:58.352Z,32.64
2023-04-22T17:38:00.872Z,33.13
2023-04-22T17:41:03.527Z,33.46
2023-04-22T17:44:08.888Z,33.76
2023-04-22T17:47:11.974Z,33.48
2023-04-22T17:50:14.588Z,33.95
2023-04-22T17:53:17.507Z,34.30
2023-04-22T17:56:20.323Z,34.28
2023-04-22T17:59:24.321Z,34.43
2023-04-22T18:02:27.200Z,34.59
2023-04-22T18:05:29.887Z,34.70
2023-04-22T18:08:32.561Z,35.11
2023-04-22T18:11:35.267Z,36.00
2023-04-22T18:14:39.287Z,36.93
2023-04-22T18:17:41.870Z,37.51
2023-04-22T18:20:45.616Z,38.50
2023-04-22T18:23:48.321Z,39.36
2023-04-22T18:26:50.946Z,39.56
2023-04-22T18:29:55.228Z,40.28
2023-04-22T18:32:57.986Z,41.02
2023-04-22T18:36:00.852Z,42.53
2023-04-22T18:39:05.519Z,44.13
2023-04-22T18:42:08.044Z,44.35
2023-04-22T18:45:12.575Z,45.10
2023-04-22T18:48:15.128Z,45.13
2023-04-22T18:51:17.670Z,45.88
2023-04-22T18:54:20.626Z,46.29
2023-04-22T18:57:23.219Z,46.23
2023-04-22T19:00:27.599Z,46.62
2023-04-22T19:03:30.245Z,46.97
2023-04-22T19:06:32.966Z,48.56
2023-04-22T19:09:35.776Z,49.58
2023-04-22T19:12:38.307Z,49.97
2023-04-22T19:15:42.357Z,49.08
2023-04-22T19:18:45.001Z,49.16
2023-04-22T19:21:47.600Z,49.26
2023-04-22T19:24:50.166Z,48.92
2023-04-22T19:27:52.737Z,49.87
2023-04-22T19:30:56.814Z,50.64
2023-04-22T19:33:59.538Z,50.36
2023-04-22T19:37:02.963Z,50.27
2023-04-22T19:40:05.687Z,50.27
2023-04-22T19:43:08.254Z,50.10
2023-04-22T19:46:12.153Z,50.19
2023-04-22T19:49:15.646Z,49.87
2023-04-22T19:52:18.271Z,49.70
2023-04-22T19:55:21.090Z,50.30
2023-04-22T19:58:23.891Z,50.72
2023-04-22T20:01:29.625Z,50.91
2023-04-22T20:04:32.702Z,50.43
2023-04-22T20:07:36.526Z,50.09
2023-04-22T20:10:39.513Z,50.03
2023-04-22T20:13:42.745Z,50.14
2023-04-22T20:19:50.779Z,50.47
2023-04-22T20:22:54.791Z,50.02
2023-04-22T20:25:57.726Z,50.51
2023-04-22T20:29:01.734Z,49.96
2023-04-22T20:32:06.431Z,48.61
2023-04-22T20:35:16.078Z,48.58
2023-04-22T20:38:20.377Z,48.35
2023-04-22T20:41:24.657Z,48.22
2023-04-22T20:44:27.307Z,48.33
2023-04-22T20:47:31.837Z,48.40
2023-04-22T20:50:34.521Z,48.78
2023-04-22T20:53:38.142Z,48.51
2023-04-22T20:56:41.203Z,48.87
2023-04-22T20:59:44.018Z,48.29
2023-04-22T21:02:49.481Z,48.81
2023-04-22T21:05:52.438Z,48.73
2023-04-22T21:08:56.095Z,49.17
2023-04-22T21:11:58.989Z,49.19
2023-04-22T21:15:02.318Z,49.18
2023-04-22T21:18:06.530Z,49.92
2023-04-22T21:21:10.952Z,50.04
2023-04-22T21:24:15.018Z,49.79
2023-04-22T21:27:17.966Z,50.02
2023-04-22T21:30:21.835Z,50.18
2023-04-22T21:33:26.131Z,51.07
2023-04-22T21:36:28.830Z,51.21
2023-04-22T21:39:31.437Z,51.35
2023-04-22T21:42:34.164Z,51.55
2023-04-22T21:45:36.720Z,51.95
2023-04-22T21:48:40.699Z,51.74
2023-04-22T21:51:43.300Z,51.88
2023-04-22T21:54:45.932Z,52.53
2023-04-22T21:57:48.673Z,53.43
2023-04-22T22:00:51.202Z,53.56
2023-04-22T22:03:55.303Z,53.64
2023-04-22T22:06:57.989Z,53.89
2023-04-22T22:10:00.684Z,54.05
2023-04-22T22:13:03.292Z,54.71
2023-04-22T22:16:07.075Z,54.03
2023-04-22T22:19:11.345Z,53.51
2023-04-22T22:22:13.997Z,53.07
2023-04-22T22:25:17.180Z,52.64
2023-04-22T22:28:19.699Z,52.45
2023-04-22T22:31:22.287Z,52.28
2023-04-22T22:34:26.412Z,52.04
2023-04-22T22:37:28.947Z,51.45
2023-04-22T22:40:31.868Z,51.14
2023-04-22T22:43:34.500Z,50.55
2023-04-22T22:46:37.549Z,50.66
2023-04-22T22:49:42.781Z,50.95
2023-04-22T22:52:45.368Z,51.81
2023-04-22T22:55:48.060Z,52.10
2023-04-22T22:58:50.591Z,52.14
2023-04-22T23:01:53.179Z,52.63
2023-04-22T23:04:57.164Z,52.75
2023-04-22T23:07:59.671Z,53.24
2023-04-22T23:11:02.319Z,53.27
2023-04-22T23:14:04.880Z,53.35
2023-04-22T23:17:07.481Z,53.33
2023-04-22T23:20:12.349Z,52.95
2023-04-22T23:23:16.785Z,52.96
2023-04-22T23:26:20.176Z,52.27
2023-04-22T23:29:23.057Z,52.14
2023-04-22T23:32:26.543Z,52.23
2023-04-22T23:35:30.508Z,52.35
2023-04-22T23:38:32.947Z,51.90
2023-04-22T23:41:36.256Z,51.52
2023-04-22T23:44:39.108Z,51.73
2023-04-22T23:47:42.015Z,51.81
2023-04-22T23:50:45.970Z,51.57
2023-04-22T23:53:48.542Z,51.28
2023-04-22T23:56:52.035Z,51.54
2023-04-22T23:59:54.669Z,51.61
